Time;durP1;ratioP1;P1;durP2;ratioP2;P2;SDS_P1;SDS_P2;PMS_P1;PMS_P2;Temp;Humidity;BMP_temperature;BMP_pressure;BME280_temperature;BME280_humidity;BME280_pressure;Samples;Min_cycle;Max_cycle;Signal;HPM_P1;HPM_P2
2022/12/18 00:02:19;;;;;;;68.03;28.10;;;;;;;-7.06;100.00;102864.84;5014850;28;20084;-75
2022/12/18 00:04:44;;;;;;;63.00;25.10;;;;;;;-7.06;100.00;102862.31;5011084;28;20084;-76
2022/12/18 00:07:10;;;;;;;62.47;25.80;;;;;;;-7.13;100.00;102854.94;5010244;28;20132;-76
2022/12/18 00:09:35;;;;;;;63.70;25.92;;;;;;;-7.11;100.00;102873.72;5011996;28;20104;-75
2022/12/18 00:12:00;;;;;;;62.25;26.05;;;;;;;-7.22;100.00;102859.31;5010406;28;20552;-75
2022/12/18 00:14:26;;;;;;;66.22;26.73;;;;;;;-7.18;100.00;102871.44;5012257;28;20026;-76
2022/12/18 00:16:51;;;;;;;62.83;25.98;;;;;;;-7.21;100.00;102864.47;5013042;28;20425;-76
2022/12/18 00:19:16;;;;;;;63.72;26.27;;;;;;;-7.22;100.00;102869.44;5009839;28;20107;-76
2022/12/18 00:21:43;;;;;;;55.20;25.17;;;;;;;-7.25;100.00;102859.06;5011680;28;20117;-76
2022/12/18 00:24:10;;;;;;;63.53;24.67;;;;;;;-7.33;100.00;102846.63;5013899;28;20022;-76
2022/12/18 00:26:36;;;;;;;73.00;27.70;;;;;;;-7.27;100.00;102852.97;5013575;28;20068;-76
2022/12/18 00:29:09;;;;;;;61.47;24.75;;;;;;;-7.35;100.00;102825.34;5013558;28;20106;-75
2022/12/18 00:31:35;;;;;;;62.45;26.05;;;;;;;-7.32;100.00;102832.31;5014604;28;20129;-75
2022/12/18 00:34:01;;;;;;;62.63;23.92;;;;;;;-7.36;100.00;102822.69;5013109;28;20465;-76
2022/12/18 00:36:29;;;;;;;58.67;25.27;;;;;;;-7.39;100.00;102830.94;5013959;28;20428;-76
2022/12/18 00:38:56;;;;;;;59.20;25.98;;;;;;;-7.48;100.00;102815.00;5013346;28;20034;-75
2022/12/18 00:44:09;;;;;;;61.78;25.75;;;;;;;-7.46;100.00;102815.97;5013800;28;20057;-76
2022/12/18 00:46:34;;;;;;;63.88;25.88;;;;;;;-7.45;100.00;102814.38;5013234;28;20469;-75
2022/12/18 00:48:59;;;;;;;65.60;25.98;;;;;;;-7.43;100.00;102823.84;5013563;28;20026;-75
2022/12/18 00:51:25;;;;;;;57.38;24.95;;;;;;;-7.42;100.00;102827.25;5014024;28;20037;-76
2022/12/18 00:53:51;;;;;;;61.45;25.83;;;;;;;-7.48;100.00;102817.53;5012622;28;20022;-75
2022/12/18 00:56:17;;;;;;;64.13;26.00;;;;;;;-7.48;100.00;102819.19;5013629;28;20625;-75
2022/12/18 00:58:42;;;;;;;58.47;25.92;;;;;;;-7.49;100.00;102818.25;5013253;28;20053;-75
2022/12/18 01:01:08;;;;;;;55.63;23.45;;;;;;;-7.53;100.00;102829.81;5012721;28;20026;-75
2022/12/18 01:03:34;;;;;;;60.88;25.63;;;;;;;-7.55;100.00;102840.59;5013309;28;20026;-76
2022/12/18 01:05:59;;;;;;;58.97;24.45;;;;;;;-7.61;100.00;102835.03;5013290;28;20021;-75
2022/12/18 01:08:24;;;;;;;58.20;24.20;;;;;;;-7.64;100.00;102827.19;5012671;28;20037;-75
2022/12/18 01:10:50;;;;;;;60.85;25.60;;;;;;;-7.66;100.00;102826.16;5013150;28;20022;-75
2022/12/18 01:13:15;;;;;;;63.13;24.65;;;;;;;-7.67;100.00;102842.13;5013742;28;20086;-75
2022/12/18 01:15:48;;;;;;;61.17;24.40;;;;;;;-7.66;100.00;102848.94;5012264;28;20485;-76
2022/12/18 01:18:13;;;;;;;57.17;24.05;;;;;;;-7.69;100.00;102838.56;5013291;28;20029;-75
2022/12/18 01:20:38;;;;;;;59.72;24.23;;;;;;;-7.69;100.00;102851.22;5012944;28;20049;-75
2022/12/18 01:23:03;;;;;;;61.78;24.60;;;;;;;-7.72;100.00;102853.50;5011101;28;20044;-75
2022/12/18 01:25:29;;;;;;;60.38;24.25;;;;;;;-7.77;100.00;102846.41;5011028;28;20029;-75
2022/12/18 01:27:54;;;;;;;60.88;24.83;;;;;;;-7.78;100.00;102853.91;5012943;28;20109;-76
2022/12/18 01:30:19;;;;;;;55.00;24.92;;;;;;;-7.83;100.00;102848.44;5012409;28;20030;-75
2022/12/18 01:32:44;;;;;;;64.68;24.60;;;;;;;-7.85;100.00;102847.44;5012951;28;20018;-75
2022/12/18 01:35:10;;;;;;;55.85;24.45;;;;;;;-7.92;100.00;102832.47;5013441;28;20037;-75
2022/12/18 01:37:35;;;;;;;61.30;25.33;;;;;;;-7.89;100.00;102837.81;5011914;28;20109;-76
2022/12/18 01:40:00;;;;;;;54.17;24.10;;;;;;;-7.90;100.00;102828.44;5012735;28;20034;-75
2022/12/18 01:42:26;;;;;;;54.40;23.50;;;;;;;-7.89;100.00;102835.28;5011760;28;20049;-75
2022/12/18 01:45:01;;;;;;;63.35;23.85;;;;;;;-7.98;100.00;102829.44;5012686;28;20093;-76
2022/12/18 01:47:55;;;;;;;58.20;24.80;;;;;;;-7.94;100.00;102840.72;5012617;28;20056;-75
2022/12/18 01:50:32;;;;;;;56.35;24.05;;;;;;;-7.91;100.00;102840.97;5011673;28;20029;-75
2022/12/18 01:53:17;;;;;;;56.65;22.80;;;;;;;-7.92;100.00;102840.06;5008635;28;20034;-75
2022/12/18 01:55:46;;;;;;;56.55;24.55;;;;;;;-7.99;100.00;102836.91;5005980;28;20026;-75
2022/12/18 01:58:12;;;;;;;59.13;22.88;;;;;;;-8.01;100.00;102834.28;5004570;28;20091;-75
2022/12/18 02:00:37;;;;;;;58.90;25.58;;;;;;;-7.97;100.00;102836.28;5011985;28;20030;-75
2022/12/18 02:03:02;;;;;;;55.80;23.45;;;;;;;-8.01;100.00;102830.09;5010480;28;20034;-76
2022/12/18 02:05:34;;;;;;;55.75;23.20;;;;;;;-8.01;100.00;102834.28;5010286;28;20073;-75
2022/12/18 02:08:16;;;;;;;52.35;22.90;;;;;;;-8.02;100.00;102827.41;4999016;28;20024;-76
2022/12/18 02:10:59;;;;;;;50.75;23.65;;;;;;;-8.08;100.00;102816.78;5011409;28;20030;-75
2022/12/18 02:13:35;;;;;;;58.90;23.17;;;;;;;-8.03;100.00;102825.66;5012618;28;20038;-75
2022/12/18 02:16:06;;;;;;;54.00;23.20;;;;;;;-8.02;100.00;102819.81;5012075;28;20029;-75
2022/12/18 02:18:36;;;;;;;56.97;24.25;;;;;;;-8.09;100.00;102820.97;5011978;28;20088;-76
2022/12/18 02:21:31;;;;;;;54.83;22.17;;;;;;;-8.07;100.00;102826.16;5012018;28;20030;-75
2022/12/18 02:24:14;;;;;;;58.38;24.27;;;;;;;-8.09;100.00;102827.66;5012217;28;20105;-75
2022/12/18 02:26:49;;;;;;;54.30;22.70;;;;;;;-8.11;100.00;102824.09;5011764;28;20026;-75
2022/12/18 02:29:20;;;;;;;58.10;23.98;;;;;;;-8.14;100.00;102821.31;5012516;28;20037;-75
2022/12/18 02:31:55;;;;;;;55.08;23.08;;;;;;;-8.16;100.00;102826.28;5011311;28;20018;-75
2022/12/18 02:34:26;;;;;;;50.75;22.75;;;;;;;-8.17;100.00;102808.44;5012315;28;20033;-75
2022/12/18 02:36:54;;;;;;;49.85;22.45;;;;;;;-8.15;100.00;102817.03;5011826;28;20084;-75
2022/12/18 02:39:22;;;;;;;55.95;23.45;;;;;;;-8.15;100.00;102822.09;5011561;28;20066;-75
2022/12/18 02:41:48;;;;;;;47.70;23.02;;;;;;;-8.21;100.00;102808.91;5011539;28;20061;-76
2022/12/18 02:44:14;;;;;;;51.65;22.30;;;;;;;-8.22;100.00;102813.09;5012185;28;20026;-75
2022/12/18 02:46:50;;;;;;;55.58;22.17;;;;;;;-8.19;100.00;102809.94;5011524;28;20029;-75
2022/12/18 02:49:25;;;;;;;49.33;21.65;;;;;;;-8.23;100.00;102802.88;5012256;28;20030;-75
2022/12/18 02:51:55;;;;;;;56.13;23.73;;;;;;;-8.27;100.00;102800.06;5011632;28;20465;-75
2022/12/18 02:54:38;;;;;;;52.88;21.95;;;;;;;-8.33;100.00;102783.50;5011582;28;20481;-76
2022/12/18 02:57:44;;;;;;;49.13;21.92;;;;;;;-8.27;100.00;102795.00;5011918;28;20469;-76
2022/12/18 03:00:15;;;;;;;54.83;23.60;;;;;;;-8.29;100.00;102794.00;5011501;28;20104;-75
2022/12/18 03:03:23;;;;;;;46.05;22.15;;;;;;;-8.28;100.00;102797.41;5001888;28;20350;-75
2022/12/18 03:05:57;;;;;;;45.53;20.17;;;;;;;-8.36;100.00;102781.59;5003238;28;20042;-75
2022/12/18 03:08:27;;;;;;;44.88;21.30;;;;;;;-8.29;100.00;102791.47;5011687;28;20036;-75
2022/12/18 03:11:09;;;;;;;50.20;20.98;;;;;;;-8.27;100.00;102784.91;5015188;28;20149;-76
2022/12/18 03:13:40;;;;;;;50.05;21.35;;;;;;;-8.22;100.00;102780.19;5014045;28;20103;-75
2022/12/18 03:16:10;;;;;;;50.95;20.20;;;;;;;-8.17;100.00;102771.38;5013924;28;20176;-76
2022/12/18 03:18:45;;;;;;;55.95;22.38;;;;;;;-8.15;100.00;102779.06;5013867;28;20041;-75
2022/12/18 03:21:13;;;;;;;46.25;20.88;;;;;;;-8.22;100.00;102757.44;5012552;28;20574;-76
2022/12/18 03:23:47;;;;;;;47.00;21.52;;;;;;;-8.16;100.00;102769.72;5013385;28;20037;-75
2022/12/18 03:26:17;;;;;;;39.95;18.88;;;;;;;-8.11;100.00;102776.94;5015708;28;20033;-75
2022/12/18 03:28:49;;;;;;;50.22;20.92;;;;;;;-8.09;100.00;102782.13;5014385;28;20116;-75
2022/12/18 03:31:14;;;;;;;43.63;20.42;;;;;;;-8.10;100.00;102782.88;5015669;28;20050;-75
2022/12/18 03:33:42;;;;;;;48.13;20.27;;;;;;;-8.08;100.00;102788.94;5015410;28;20567;-75
2022/12/18 03:36:08;;;;;;;43.55;20.40;;;;;;;-8.06;100.00;102784.91;5014329;28;20025;-75
2022/12/18 03:38:33;;;;;;;49.75;21.27;;;;;;;-8.11;100.00;102776.03;5015323;28;20037;-75
2022/12/18 03:41:23;;;;;;;46.42;20.52;;;;;;;-8.04;100.00;102784.28;5015077;28;20026;-75
2022/12/18 03:43:55;;;;;;;41.20;18.58;;;;;;;-8.02;100.00;102790.31;5003386;28;20049;-75
2022/12/18 03:46:28;;;;;;;42.75;19.90;;;;;;;-8.06;100.00;102780.72;5015127;28;20112;-75
2022/12/18 03:49:37;;;;;;;45.30;19.95;;;;;;;-8.05;100.00;102777.41;5014982;28;20156;-75
2022/12/18 03:52:10;;;;;;;43.30;17.75;;;;;;;-8.07;100.00;102775.53;5008947;28;20038;-75
2022/12/18 03:54:36;;;;;;;;;;;;;;;-8.10;100.00;102770.22;5015285;28;20026;-75
2022/12/18 03:57:19;;;;;;;39.65;18.23;;;;;;;-8.18;100.00;102749.31;5000052;28;19996;-75
2022/12/18 03:59:48;;;;;;;42.78;18.33;;;;;;;-8.12;100.00;102759.06;5015455;28;20470;-75
2022/12/18 04:02:16;;;;;;;40.35;20.52;;;;;;;-8.15;100.00;102739.44;5014662;28;20026;-75
2022/12/18 04:04:42;;;;;;;44.35;19.95;;;;;;;-8.17;100.00;102738.47;5013703;28;20153;-75
2022/12/18 04:07:08;;;;;;;37.92;17.67;;;;;;;-8.14;100.00;102737.81;5014726;28;20386;-75
2022/12/18 04:09:36;;;;;;;43.47;19.38;;;;;;;-8.20;100.00;102732.28;5014644;28;20017;-75
2022/12/18 04:12:01;;;;;;;42.88;19.40;;;;;;;-8.14;100.00;102735.28;5013688;28;20038;-75
2022/12/18 04:14:26;;;;;;;41.97;18.80;;;;;;;-8.22;100.00;102721.13;5014007;28;20659;-75
2022/12/18 04:16:52;;;;;;;42.00;19.67;;;;;;;-8.13;100.00;102737.06;5014256;28;20065;-75
2022/12/18 04:19:17;;;;;;;42.70;19.13;;;;;;;-8.20;100.00;102714.56;5013800;28;20362;-76
2022/12/18 04:21:42;;;;;;;42.38;19.85;;;;;;;-8.17;100.00;102719.88;5013807;28;20029;-75
2022/12/18 04:24:08;;;;;;;40.55;18.70;;;;;;;-8.30;100.00;102700.25;5013290;28;20030;-75
2022/12/18 04:26:34;;;;;;;40.72;19.48;;;;;;;-8.25;100.00;102715.03;5010774;28;20106;-75
2022/12/18 04:28:59;;;;;;;43.00;19.05;;;;;;;-8.26;100.00;102723.41;5010901;28;20073;-76
2022/12/18 04:31:24;;;;;;;43.10;19.13;;;;;;;-8.27;100.00;102728.34;5013714;28;20029;-75
2022/12/18 04:33:50;;;;;;;44.70;19.73;;;;;;;-8.29;100.00;102730.72;5011018;28;20033;-75
2022/12/18 04:36:15;;;;;;;41.97;18.92;;;;;;;-8.25;100.00;102742.00;5010434;28;20022;-75
2022/12/18 04:38:40;;;;;;;44.53;19.17;;;;;;;-8.27;100.00;102749.47;5012393;28;20061;-76
2022/12/18 04:41:06;;;;;;;39.63;18.50;;;;;;;-8.28;100.00;102751.84;5014170;28;20018;-75
2022/12/18 04:43:32;;;;;;;45.45;20.25;;;;;;;-8.31;100.00;102744.00;5013802;28;20057;-76
2022/12/18 04:46:06;;;;;;;44.45;19.27;;;;;;;-8.34;100.00;102746.28;5012850;28;20026;-76
2022/12/18 04:48:31;;;;;;;40.13;19.17;;;;;;;-8.36;100.00;102745.28;5014183;28;20034;-75
2022/12/18 04:50:56;;;;;;;43.28;18.95;;;;;;;-8.39;100.00;102753.53;5013687;28;20033;-76
2022/12/18 04:53:22;;;;;;;45.13;19.92;;;;;;;-8.45;100.00;102763.13;5012556;28;20049;-75
2022/12/18 04:55:47;;;;;;;42.63;19.25;;;;;;;-8.39;100.00;102767.84;5010365;28;20492;-76
2022/12/18 04:58:12;;;;;;;40.78;18.73;;;;;;;-8.39;100.00;102762.78;5011471;28;20461;-75
2022/12/18 05:00:38;;;;;;;45.78;18.70;;;;;;;-8.48;100.00;102761.22;5011444;28;20581;-76
2022/12/18 05:03:03;;;;;;;40.50;18.77;;;;;;;-8.46;100.00;102768.97;5012316;28;20040;-75
2022/12/18 05:05:28;;;;;;;43.15;17.98;;;;;;;-8.54;100.00;102749.72;5012530;28;20029;-75
2022/12/18 05:07:54;;;;;;;39.60;17.73;;;;;;;-8.46;100.00;102763.03;5011833;28;20504;-76
2022/12/18 05:10:19;;;;;;;42.38;18.25;;;;;;;-8.53;100.00;102769.22;5012258;28;20461;-76
2022/12/18 05:12:59;;;;;;;36.47;18.05;;;;;;;-8.55;100.00;102771.59;5010797;28;20397;-76
2022/12/18 05:15:30;;;;;;;36.90;18.15;;;;;;;-8.59;100.00;102769.56;5011699;28;20030;-76
2022/12/18 05:17:56;;;;;;;38.72;17.35;;;;;;;-8.58;100.00;102762.88;4999352;28;20053;-76
2022/12/18 05:20:22;;;;;;;40.22;18.00;;;;;;;-8.59;100.00;102773.75;5012398;28;20100;-76
2022/12/18 05:22:48;;;;;;;35.47;16.88;;;;;;;-8.62;100.00;102766.78;5010641;28;20164;-76
2022/12/18 05:25:13;;;;;;;43.60;17.95;;;;;;;-8.63;100.00;102761.56;5010340;28;20113;-76
2022/12/18 05:27:38;;;;;;;42.08;17.63;;;;;;;-8.63;100.00;102762.50;5011632;28;20153;-75
2022/12/18 05:30:04;;;;;;;37.58;18.27;;;;;;;-8.63;100.00;102759.03;5012527;28;20037;-76
2022/12/18 05:32:29;;;;;;;42.17;18.05;;;;;;;-8.60;100.00;102760.22;5011209;28;20032;-76
2022/12/18 05:34:57;;;;;;;34.63;16.73;;;;;;;-8.57;100.00;102764.63;5009426;28;20036;-75
2022/12/18 05:37:22;;;;;;;38.45;16.60;;;;;;;-8.53;100.00;102761.63;5012757;28;20021;-75
2022/12/18 05:39:47;;;;;;;37.70;17.02;;;;;;;-8.51;100.00;102752.50;5009922;28;20373;-76
2022/12/18 05:42:13;;;;;;;44.22;17.05;;;;;;;-8.47;100.00;102749.47;5010998;28;20058;-76
2022/12/18 05:44:38;;;;;;;41.45;17.38;;;;;;;-8.46;100.00;102743.66;5012351;28;20496;-75
2022/12/18 05:47:04;;;;;;;35.40;17.30;;;;;;;-8.53;100.00;102726.22;5011511;28;20061;-76
2022/12/18 05:49:29;;;;;;;38.33;16.95;;;;;;;-8.48;100.00;102732.53;5011571;28;20104;-75
2022/12/18 05:51:54;;;;;;;42.00;16.23;;;;;;;-8.56;100.00;102736.06;5011600;28;20024;-75
2022/12/18 05:54:20;;;;;;;41.40;18.13;;;;;;;-8.50;100.00;102739.13;5010618;28;20057;-75
2022/12/18 05:56:45;;;;;;;38.85;18.35;;;;;;;-8.46;100.00;102735.19;5010499;28;20040;-75
2022/12/18 05:59:10;;;;;;;34.78;17.08;;;;;;;-8.44;100.00;102733.66;5008701;28;20042;-75
2022/12/18 06:01:35;;;;;;;38.28;17.17;;;;;;;-8.53;100.00;102721.16;5011563;28;20038;-75
2022/12/18 06:04:01;;;;;;;36.17;17.55;;;;;;;-8.38;100.00;102740.13;5009739;28;20048;-75
2022/12/18 06:06:28;;;;;;;33.72;15.88;;;;;;;-8.40;100.00;102735.69;5013140;28;20053;-76
2022/12/18 06:08:55;;;;;;;34.63;16.85;;;;;;;-8.40;100.00;102726.47;5012512;28;20025;-76
2022/12/18 06:11:25;;;;;;;37.88;17.08;;;;;;;-8.40;100.00;102736.59;5012289;28;20025;-75
2022/12/18 06:13:55;;;;;;;38.08;16.55;;;;;;;-8.38;100.00;102742.66;5012513;28;20021;-75
2022/12/18 06:16:21;;;;;;;36.30;16.48;;;;;;;-8.37;100.00;102749.47;5012692;28;20029;-75
2022/12/18 06:18:46;;;;;;;34.10;16.35;;;;;;;-8.38;100.00;102742.66;5011263;28;20034;-75
2022/12/18 06:21:11;;;;;;;34.30;16.13;;;;;;;-8.41;100.00;102746.56;5012786;28;20065;-75
2022/12/18 06:23:37;;;;;;;35.75;16.55;;;;;;;-8.43;100.00;102732.94;5012849;28;20057;-76
2022/12/18 06:26:07;;;;;;;35.08;16.85;;;;;;;-8.43;100.00;102740.50;5011535;28;20018;-76
2022/12/18 06:28:33;;;;;;;36.15;17.63;;;;;;;-8.46;100.00;102740.25;5012390;28;20424;-76
2022/12/18 06:30:58;;;;;;;36.78;16.80;;;;;;;-8.47;100.00;102744.41;5011599;28;20100;-75
2022/12/18 06:33:26;;;;;;;36.13;16.83;;;;;;;-8.50;100.00;102742.53;5012797;28;20461;-75
2022/12/18 06:35:52;;;;;;;37.10;16.52;;;;;;;-8.54;100.00;102739.59;5012442;28;20022;-76
2022/12/18 06:38:17;;;;;;;33.20;16.75;;;;;;;-8.54;100.00;102747.19;5015735;28;20036;-76
2022/12/18 06:40:42;;;;;;;40.88;17.08;;;;;;;-8.57;100.00;102742.75;5016310;28;20022;-75
2022/12/18 06:43:08;;;;;;;39.83;16.23;;;;;;;-8.57;100.00;102726.69;5016021;28;20501;-76
2022/12/18 06:45:33;;;;;;;36.80;16.55;;;;;;;-8.55;100.00;102722.66;5015741;28;20034;-76
2022/12/18 06:47:59;;;;;;;34.90;16.65;;;;;;;-8.56;100.00;102718.38;5015881;28;20026;-76
2022/12/18 06:50:24;;;;;;;36.67;16.35;;;;;;;-8.57;100.00;102727.56;5016276;28;20025;-75
2022/12/18 06:52:49;;;;;;;37.03;17.02;;;;;;;-8.58;100.00;102717.34;5015044;28;20022;-75
2022/12/18 06:55:14;;;;;;;38.10;17.95;;;;;;;-8.57;100.00;102729.22;5016218;28;20033;-75
2022/12/18 06:57:40;;;;;;;35.67;16.13;;;;;;;-8.58;100.00;102729.97;5016092;28;20030;-76
2022/12/18 07:00:07;;;;;;;37.65;18.10;;;;;;;-8.65;100.00;102723.53;5015338;28;20347;-76
2022/12/18 07:02:32;;;;;;;36.30;17.25;;;;;;;-8.58;100.00;102720.75;5014970;28;20425;-75
2022/12/18 07:04:58;;;;;;;37.72;17.13;;;;;;;-8.59;100.00;102730.75;5013889;28;20029;-75
2022/12/18 07:07:23;;;;;;;41.60;17.67;;;;;;;-8.65;100.00;102722.66;5015153;28;20026;-76
2022/12/18 07:09:50;;;;;;;37.28;15.98;;;;;;;-8.72;100.00;102714.53;5014808;28;20018;-75
2022/12/18 07:12:15;;;;;;;36.72;16.67;;;;;;;-8.70;100.00;102714.66;5013985;28;20030;-75
2022/12/18 07:14:40;;;;;;;35.15;14.98;;;;;;;-8.71;100.00;102705.31;5014713;28;20500;-75
2022/12/18 07:17:05;;;;;;;38.78;16.85;;;;;;;-8.75;100.00;102701.63;5013935;28;20037;-75
2022/12/18 07:19:31;;;;;;;37.78;16.55;;;;;;;-8.76;100.00;102694.81;5014438;28;20026;-75
2022/12/18 07:21:56;;;;;;;35.45;16.60;;;;;;;-8.75;100.00;102694.06;5014810;28;20037;-75
2022/12/18 07:24:21;;;;;;;37.78;16.65;;;;;;;-8.71;100.00;102672.44;5015668;28;20026;-75
2022/12/18 07:26:47;;;;;;;35.13;16.98;;;;;;;-8.64;100.00;102668.78;5015300;28;20026;-76
2022/12/18 07:29:12;;;;;;;37.42;17.13;;;;;;;-8.65;100.00;102657.78;5014724;28;20418;-76
2022/12/18 07:31:38;;;;;;;36.78;17.77;;;;;;;-8.63;100.00;102651.22;5015726;28;20484;-76
2022/12/18 07:34:03;;;;;;;37.63;18.13;;;;;;;-8.58;100.00;102656.66;5015104;28;20026;-75
2022/12/18 07:36:28;;;;;;;35.78;17.00;;;;;;;-8.55;100.00;102659.44;5014785;28;20018;-75
2022/12/18 07:38:54;;;;;;;35.45;17.13;;;;;;;-8.55;100.00;102654.38;5015345;28;20508;-76
2022/12/18 07:41:20;;;;;;;39.47;19.38;;;;;;;-8.48;100.00;102652.47;5014578;28;20080;-75
2022/12/18 07:43:46;;;;;;;41.00;18.10;;;;;;;-8.42;100.00;102651.22;5014749;28;20100;-75
2022/12/18 07:46:15;;;;;;;39.10;18.98;;;;;;;-8.38;100.00;102656.63;5015349;28;20156;-75
2022/12/18 07:48:42;;;;;;;38.70;18.13;;;;;;;-8.32;100.00;102633.47;5013453;28;20049;-75
2022/12/18 07:51:08;;;;;;;41.40;18.48;;;;;;;-8.29;100.00;102624.47;5015346;28;20037;-75
2022/12/18 07:53:35;;;;;;;41.80;20.48;;;;;;;-8.19;100.00;102621.03;5014779;28;20025;-75
2022/12/18 07:56:03;;;;;;;44.55;19.73;;;;;;;-8.11;100.00;102629.22;5014073;28;20026;-76
2022/12/18 07:58:29;;;;;;;38.22;17.92;;;;;;;-8.17;100.00;102600.94;5015120;28;20067;-76
2022/12/18 08:01:01;;;;;;;44.17;19.13;;;;;;;-8.03;100.00;102607.97;5014419;28;20018;-76
2022/12/18 08:03:27;;;;;;;43.55;18.33;;;;;;;-7.99;100.00;102615.03;5014178;28;20496;-75
2022/12/18 08:05:52;;;;;;;40.78;18.92;;;;;;;-7.96;100.00;102620.34;5014041;28;20022;-75
2022/12/18 08:08:17;;;;;;;37.92;17.30;;;;;;;-7.92;100.00;102624.88;5014890;28;20061;-75
2022/12/18 08:10:42;;;;;;;40.38;19.67;;;;;;;-7.89;100.00;102632.72;5013633;28;20037;-75
2022/12/18 08:13:08;;;;;;;40.45;19.55;;;;;;;-7.84;100.00;102625.50;5014377;28;20104;-75
2022/12/18 08:15:33;;;;;;;43.17;19.25;;;;;;;-7.79;100.00;102629.28;5014717;28;20042;-75
2022/12/18 08:17:58;;;;;;;44.05;19.17;;;;;;;-7.73;100.00;102628.88;5014766;28;20483;-75
2022/12/18 08:20:23;;;;;;;45.28;19.55;;;;;;;-7.66;100.00;102621.00;5025057;28;20029;-75
2022/12/18 08:22:49;;;;;;;43.67;20.45;;;;;;;-7.69;100.00;102613.16;5025058;28;20112;-75
2022/12/18 08:25:14;;;;;;;42.78;18.67;;;;;;;-7.56;100.00;102637.03;5021801;28;20537;-75
2022/12/18 08:27:39;;;;;;;41.88;18.73;;;;;;;-7.52;100.00;102635.66;5028042;28;20033;-75
2022/12/18 08:30:05;;;;;;;45.70;18.83;;;;;;;-7.47;100.00;102628.41;5026145;28;20088;-75
2022/12/18 08:32:32;;;;;;;39.42;18.73;;;;;;;-7.41;100.00;102631.41;5011575;28;20026;-75
2022/12/18 08:34:57;;;;;;;40.22;18.38;;;;;;;-7.38;100.00;102635.06;5010493;28;20030;-75
2022/12/18 08:37:23;;;;;;;42.67;18.20;;;;;;;-7.34;100.00;102638.72;5009460;28;20034;-75
2022/12/18 08:39:48;;;;;;;46.97;19.25;;;;;;;-7.29;100.00;102637.44;5009028;28;20010;-75
2022/12/18 08:44:57;;;;;;;37.92;18.90;;;;;;;-7.20;100.00;102614.44;5009449;28;20124;-75
2022/12/18 08:47:22;;;;;;;51.42;20.10;;;;;;;-7.13;100.00;102601.44;5010700;28;20523;-75
2022/12/18 08:49:48;;;;;;;43.25;19.33;;;;;;;-7.08;100.00;102606.13;5013852;28;20084;-75
2022/12/18 08:52:13;;;;;;;44.33;19.48;;;;;;;-7.09;100.00;102598.41;5013241;28;20022;-75
2022/12/18 08:54:38;;;;;;;45.42;20.88;;;;;;;-7.01;100.00;102611.66;5013890;28;20021;-75
2022/12/18 08:57:04;;;;;;;50.47;21.90;;;;;;;-6.96;100.00;102618.84;5012679;28;20022;-75
2022/12/18 08:59:29;;;;;;;47.08;19.92;;;;;;;-6.88;100.00;102615.22;5010335;28;20101;-76
2022/12/18 09:01:55;;;;;;;44.30;21.33;;;;;;;-6.87;100.00;102594.19;5011850;28;20045;-76
2022/12/18 09:04:21;;;;;;;45.33;20.80;;;;;;;-6.79;100.00;102596.41;5012575;28;20036;-76
2022/12/18 09:06:47;;;;;;;46.90;20.08;;;;;;;-6.74;100.00;102598.50;5011841;28;20156;-76
2022/12/18 09:09:12;;;;;;;46.60;20.40;;;;;;;-6.75;100.00;102586.59;5010228;28;20529;-74
2022/12/18 09:11:38;;;;;;;47.45;19.88;;;;;;;-6.67;100.00;102605.81;5001981;28;20041;-76
2022/12/18 09:14:03;;;;;;;44.28;20.02;;;;;;;-6.68;100.00;102600.63;5008169;28;20105;-76
2022/12/18 09:16:29;;;;;;;48.10;21.67;;;;;;;-6.66;100.00;102606.69;5011781;28;20045;-76
2022/12/18 09:18:59;;;;;;;49.10;22.40;;;;;;;-6.46;100.00;102624.28;5012146;28;20370;-76
2022/12/18 09:21:26;;;;;;;48.83;21.85;;;;;;;-6.39;100.00;102628.16;5012634;28;20076;-76
2022/12/18 09:23:54;;;;;;;42.20;20.15;;;;;;;-6.34;100.00;102625.94;5012757;28;20042;-77
2022/12/18 09:26:20;;;;;;;44.78;21.17;;;;;;;-6.29;100.00;102622.97;5013409;28;20116;-76
2022/12/18 09:28:45;;;;;;;44.15;21.27;;;;;;;-6.24;100.00;102614.06;5009269;28;20023;-76
2022/12/18 09:31:12;;;;;;;44.85;20.77;;;;;;;-6.22;100.00;102606.53;5017211;28;20036;-76
2022/12/18 09:33:37;;;;;;;42.00;20.42;;;;;;;-6.15;100.00;102594.41;5010522;28;20109;-76
2022/12/18 09:36:07;;;;;;;45.38;22.58;;;;;;;-6.14;100.00;102585.13;5011608;28;20108;-76
2022/12/18 09:38:33;;;;;;;43.65;19.77;;;;;;;-6.06;100.00;102601.78;5009080;28;20037;-76
2022/12/18 09:41:23;;;;;;;46.20;19.42;;;;;;;-6.00;100.00;102599.69;5006522;28;20061;-76
2022/12/18 09:43:53;;;;;;;43.25;20.65;;;;;;;-5.94;100.00;102596.72;5012077;28;20091;-76
2022/12/18 09:46:26;;;;;;;42.08;21.30;;;;;;;-6.27;100.00;102529.19;5013119;28;20029;-76
2022/12/18 09:48:56;;;;;;;44.53;20.87;;;;;;;-5.88;100.00;102577.69;5011617;28;20030;-77
2022/12/18 09:51:30;;;;;;;40.17;20.42;;;;;;;-5.74;100.00;102582.84;5010620;28;20383;-76
2022/12/18 09:54:01;;;;;;;46.03;20.55;;;;;;;-5.67;100.00;102570.66;5011624;28;20044;-76
2022/12/18 09:56:31;;;;;;;43.20;21.70;;;;;;;-5.66;100.00;102551.22;5009120;28;20428;-77
2022/12/18 09:59:02;;;;;;;46.70;21.27;;;;;;;-5.67;100.00;102555.44;5011069;28;20541;-77
2022/12/18 10:01:29;;;;;;;43.38;21.35;;;;;;;-5.50;100.00;102574.38;5011822;28;20109;-76
2022/12/18 10:03:55;;;;;;;43.55;21.02;;;;;;;-5.42;100.00;102578.34;5010784;28;20105;-76
2022/12/18 10:06:28;;;;;;;41.05;21.27;;;;;;;-5.33;100.00;102561.94;5011969;28;20117;-77
2022/12/18 10:09:06;;;;;;;37.72;19.90;;;;;;;-5.23;100.00;102566.91;5009816;28;20034;-78
2022/12/18 10:11:43;;;;;;;44.58;20.60;;;;;;;-5.15;100.00;102575.94;5011930;28;20037;-76
2022/12/18 10:14:36;;;;;;;40.47;20.08;;;;;;;-5.04;100.00;102579.19;5012445;28;20164;-76
2022/12/18 10:17:26;;;;;;;45.72;21.65;;;;;;;-5.00;100.00;102561.72;5004355;28;20095;-77
2022/12/18 10:20:10;;;;;;;41.38;20.38;;;;;;;-4.87;100.00;102567.59;5009547;28;20080;-77
2022/12/18 10:22:41;;;;;;;;;;;;;;;-4.73;100.00;102569.41;5010413;28;20393;-77
2022/12/18 10:25:16;;;;;;;41.10;19.30;;;;;;;-4.64;100.00;102570.03;5011733;28;20368;-77
2022/12/18 10:27:41;;;;;;;39.60;20.30;;;;;;;-4.59;100.00;102555.94;5012254;28;20026;-77
2022/12/18 10:30:15;;;;;;;42.65;20.40;;;;;;;-4.54;100.00;102559.66;5011921;28;20462;-77
2022/12/18 10:32:41;;;;;;;44.25;20.85;;;;;;;-4.56;100.00;102545.06;5012387;28;20060;-78
2022/12/18 10:35:18;;;;;;;40.08;20.23;;;;;;;-4.46;100.00;102534.69;5011575;28;20033;-78
2022/12/18 10:38:05;;;;;;;40.38;19.33;;;;;;;-4.42;100.00;102529.00;5011307;28;20025;-78
2022/12/18 10:40:31;;;;;;;46.38;22.02;;;;;;;-4.39;100.00;102529.22;5012705;28;20032;-77
2022/12/18 10:43:12;;;;;;;45.63;22.10;;;;;;;-4.28;100.00;102528.25;5010504;28;20401;-76
2022/12/18 10:45:38;;;;;;;38.35;19.80;;;;;;;-4.22;100.00;102519.22;5009638;28;20034;-78
2022/12/18 10:48:04;;;;;;;39.65;20.40;;;;;;;-4.21;100.00;102511.69;5012125;28;20092;-76
2022/12/18 10:50:34;;;;;;;39.38;19.52;;;;;;;-4.13;100.00;102513.03;5012520;28;20534;-77
2022/12/18 10:53:02;;;;;;;42.55;21.23;;;;;;;-4.02;100.00;102519.72;5010144;28;20539;-77
2022/12/18 10:55:37;;;;;;;42.88;21.48;;;;;;;-3.97;100.00;102506.38;5011419;28;20092;-74
2022/12/18 10:58:21;;;;;;;40.38;20.77;;;;;;;-3.90;100.00;102499.19;5001620;28;20026;-77
2022/12/18 11:01:19;;;;;;;40.65;20.92;;;;;;;-3.83;100.00;102500.44;5010297;28;20128;-77
2022/12/18 11:03:46;;;;;;;41.88;19.08;;;;;;;-3.76;100.00;102489.88;5011927;28;20026;-78
2022/12/18 11:06:16;;;;;;;36.88;18.50;;;;;;;-3.71;100.00;102491.00;5011520;28;20020;-78
2022/12/18 11:08:43;;;;;;;38.88;19.15;;;;;;;-3.69;100.00;102481.78;5009719;28;20911;-79
2022/12/18 11:11:20;;;;;;;39.45;19.33;;;;;;;-3.68;100.00;102487.78;5011549;28;20101;-75
2022/12/18 11:14:03;;;;;;;36.75;18.67;;;;;;;-3.61;100.00;102495.88;5008100;28;20370;-76
2022/12/18 11:16:42;;;;;;;35.97;18.38;;;;;;;-3.60;100.00;102486.53;5000216;28;20112;-76